Time;durP1;ratioP1;P1;durP2;ratioP2;P2;SDS_P1;SDS_P2;PMS_P1;PMS_P2;Temp;Humidity;BMP_temperature;BMP_pressure;BME280_temperature;BME280_humidity;BME280_pressure;Samples;Min_cycle;Max_cycle;Signal;HPM_P1;HPM_P2
2022/05/08 00:01:58;;;;;;;;;;;17.30;73.90;;;;;;4955488;29;19911;-58
2022/05/08 00:04:23;;;;;;;;;;;17.30;73.70;;;;;;4955276;29;19925;-58
2022/05/08 00:06:49;;;;;;;;;;;17.30;73.90;;;;;;4955449;29;19978;-59
2022/05/08 00:09:14;;;;;;;;;;;17.30;74.00;;;;;;4955266;29;20002;-56
2022/05/08 00:11:40;;;;;;;;;;;17.30;73.90;;;;;;4955311;29;19910;-57
2022/05/08 00:14:05;;;;;;;;;;;17.20;73.10;;;;;;4955360;29;20275;-57
2022/05/08 00:16:31;;;;;;;;;;;17.30;73.50;;;;;;4955395;29;19921;-56
2022/05/08 00:18:57;;;;;;;;;;;17.30;73.40;;;;;;4955158;29;19914;-58
2022/05/08 00:21:22;;;;;;;;;;;17.30;73.20;;;;;;4955583;29;19914;-58
2022/05/08 00:23:48;;;;;;;;;;;17.20;74.10;;;;;;4955340;29;19981;-57
2022/05/08 00:26:13;;;;;;;;;;;17.20;74.40;;;;;;4958137;29;19911;-57
2022/05/08 00:28:39;;;;;;;;;;;17.20;74.20;;;;;;4958670;29;20429;-56
2022/05/08 00:31:08;;;;;;;;;;;17.20;74.20;;;;;;4958839;29;19910;-58
2022/05/08 00:33:34;;;;;;;;;;;17.20;74.60;;;;;;4958857;29;20335;-58
2022/05/08 00:35:59;;;;;;;;;;;17.20;74.40;;;;;;4958389;29;19917;-57
2022/05/08 00:38:25;;;;;;;;;;;17.30;73.90;;;;;;4958396;29;19919;-57
2022/05/08 00:40:51;;;;;;;;;;;17.30;73.40;;;;;;4958835;29;19915;-56
2022/05/08 00:43:31;;;;;;;;;;;17.30;73.70;;;;;;4958506;29;19969;-56
2022/05/08 00:45:56;;;;;;;;;;;17.30;73.60;;;;;;4958477;29;19921;-58
2022/05/08 00:48:22;;;;;;;;;;;17.30;73.40;;;;;;4958421;29;19910;-56
2022/05/08 00:50:48;;;;;;;;;;;17.30;73.70;;;;;;4959092;29;19946;-56
2022/05/08 00:53:13;;;;;;;;;;;17.30;73.40;;;;;;4958544;29;19911;-58
2022/05/08 00:55:39;;;;;;;;;;;17.30;73.90;;;;;;4958336;29;19921;-57
2022/05/08 00:58:05;;;;;;;;;;;17.30;73.60;;;;;;4958355;29;19980;-57
2022/05/08 01:00:31;;;;;;;;;;;17.20;74.00;;;;;;4958333;29;19910;-57
2022/05/08 01:02:59;;;;;;;;;;;17.30;74.00;;;;;;4958079;29;19914;-58
2022/05/08 01:05:24;;;;;;;;;;;17.30;73.90;;;;;;4957995;29;19915;-58
2022/05/08 01:07:50;;;;;;;;;;;17.30;73.60;;;;;;4957825;29;19911;-58
2022/05/08 01:10:16;;;;;;;;;;;17.40;73.40;;;;;;4957929;29;19942;-56
2022/05/08 01:12:44;;;;;;;;;;;17.40;73.70;;;;;;4958092;29;20367;-58
2022/05/08 01:15:20;;;;;;;;;;;17.30;73.60;;;;;;4957999;29;19918;-57
2022/05/08 01:17:46;;;;;;;;;;;17.30;74.00;;;;;;4958033;29;19993;-57
2022/05/08 01:20:12;;;;;;;;;;;17.40;74.00;;;;;;4957729;29;20427;-56
2022/05/08 01:22:38;;;;;;;;;;;17.30;73.60;;;;;;4957592;29;19911;-57
2022/05/08 01:25:04;;;;;;;;;;;17.30;74.10;;;;;;4957722;29;19915;-57
2022/05/08 01:27:29;;;;;;;;;;;17.30;74.10;;;;;;4957541;29;19934;-57
2022/05/08 01:29:55;;;;;;;;;;;17.30;75.10;;;;;;4957669;29;20370;-57
2022/05/08 01:32:21;;;;;;;;;;;17.30;74.40;;;;;;4957692;29;19911;-57
2022/05/08 01:34:47;;;;;;;;;;;17.30;74.10;;;;;;4957663;29;19911;-57
2022/05/08 01:37:12;;;;;;;;;;;17.30;74.20;;;;;;4956413;28;19910;-56
2022/05/08 01:39:38;;;;;;;;;;;17.20;74.20;;;;;;4957534;29;20283;-58
2022/05/08 01:42:06;;;;;;;;;;;17.20;74.60;;;;;;4957253;29;20348;-58
2022/05/08 01:44:34;;;;;;;;;;;17.10;74.80;;;;;;4957448;29;20013;-57
2022/05/08 01:49:44;;;;;;;;;;;17.20;74.40;;;;;;4956837;29;20016;-57
2022/05/08 01:52:09;;;;;;;;;;;17.00;72.40;;;;;;4957372;29;19970;-60
2022/05/08 01:54:35;;;;;;;;;;;17.10;71.80;;;;;;4957384;29;19918;-58
2022/05/08 01:57:01;;;;;;;;;;;17.10;72.00;;;;;;4957164;29;20322;-56
2022/05/08 01:59:26;;;;;;;;;;;17.10;71.90;;;;;;4956991;29;20005;-58
2022/05/08 02:01:52;;;;;;;;;;;16.90;71.30;;;;;;4956986;29;19915;-56
2022/05/08 02:04:18;;;;;;;;;;;16.90;71.00;;;;;;4957009;29;19965;-59
2022/05/08 02:06:44;;;;;;;;;;;16.90;70.50;;;;;;4956892;29;19967;-58
2022/05/08 02:09:10;;;;;;;;;;;16.90;70.10;;;;;;4956927;29;19997;-58
2022/05/08 02:11:36;;;;;;;;;;;16.90;70.10;;;;;;4956867;29;19949;-59
2022/05/08 02:14:02;;;;;;;;;;;16.80;69.60;;;;;;4957001;29;19911;-58
2022/05/08 02:16:28;;;;;;;;;;;16.70;69.40;;;;;;4956680;29;19917;-57
2022/05/08 02:18:54;;;;;;;;;;;16.70;69.00;;;;;;4956582;29;20001;-57
2022/05/08 02:21:20;;;;;;;;;;;16.70;69.00;;;;;;4956928;29;20325;-57
2022/05/08 02:23:45;;;;;;;;;;;16.70;68.30;;;;;;4956651;29;19930;-62
2022/05/08 02:26:11;;;;;;;;;;;16.70;68.00;;;;;;4956464;29;19917;-57
2022/05/08 02:28:36;;;;;;;;;;;16.60;67.70;;;;;;4956657;29;19911;-60
2022/05/08 02:31:02;;;;;;;;;;;16.60;67.80;;;;;;4956684;29;19911;-59
2022/05/08 02:33:27;;;;;;;;;;;16.70;68.00;;;;;;4956377;29;20263;-58
2022/05/08 02:35:53;;;;;;;;;;;16.60;69.20;;;;;;4956354;29;19910;-60
2022/05/08 02:38:19;;;;;;;;;;;16.50;70.60;;;;;;4956352;29;19914;-57
2022/05/08 02:40:45;;;;;;;;;;;16.50;70.20;;;;;;4956235;29;19946;-58
2022/05/08 02:43:10;;;;;;;;;;;16.60;71.40;;;;;;4956348;29;19972;-58
2022/05/08 02:45:36;;;;;;;;;;;16.40;71.80;;;;;;4956136;29;19917;-57
2022/05/08 02:48:01;;;;;;;;;;;16.30;72.90;;;;;;4956176;28;19910;-57
2022/05/08 02:50:27;;;;;;;;;;;16.20;73.90;;;;;;4955921;29;20343;-56
2022/05/08 02:52:53;;;;;;;;;;;16.10;74.80;;;;;;4956143;29;19938;-58
2022/05/08 03:00:47;;;;;;;;;;;16.00;75.30;;;;;;4956412;29;19964;-57
2022/05/08 03:03:13;;;;;;;;;;;16.00;74.00;;;;;;4955823;29;19915;-57
2022/05/08 03:05:43;;;;;;;;;;;15.90;74.40;;;;;;4955977;29;19921;-57
2022/05/08 03:08:08;;;;;;;;;;;15.90;74.30;;;;;;4956187;29;19957;-57
2022/05/08 03:13:18;;;;;;;;;;;15.70;74.90;;;;;;4955864;29;19979;-59
2022/05/08 03:15:44;;;;;;;;;;;15.70;75.20;;;;;;4955784;29;20013;-64
2022/05/08 03:18:10;;;;;;;;;;;15.80;75.20;;;;;;4955992;29;19914;-58
2022/05/08 03:20:35;;;;;;;;;;;15.90;74.30;;;;;;4955668;29;19914;-57
2022/05/08 03:23:01;;;;;;;;;;;15.60;74.30;;;;;;4955704;29;19914;-60
2022/05/08 03:25:26;;;;;;;;;;;15.70;75.70;;;;;;4955724;29;20264;-58
2022/05/08 03:27:54;;;;;;;;;;;15.70;75.30;;;;;;4955738;29;19990;-60
2022/05/08 03:30:20;;;;;;;;;;;15.70;75.20;;;;;;4955491;29;19910;-61
2022/05/08 03:32:46;;;;;;;;;;;15.70;75.60;;;;;;4958635;29;20283;-60
2022/05/08 03:35:12;;;;;;;;;;;15.80;74.70;;;;;;4958177;29;19910;-62
2022/05/08 03:37:37;;;;;;;;;;;15.70;75.50;;;;;;4955593;29;20407;-60
2022/05/08 03:40:03;;;;;;;;;;;15.70;75.60;;;;;;4938242;29;20441;-57
2022/05/08 03:42:28;;;;;;;;;;;15.80;74.20;;;;;;4938275;29;19965;-56
2022/05/08 03:44:54;;;;;;;;;;;15.90;73.90;;;;;;4955519;29;19919;-61
2022/05/08 03:47:20;;;;;;;;;;;15.90;73.30;;;;;;4955637;29;20363;-61
2022/05/08 03:49:45;;;;;;;;;;;15.80;74.20;;;;;;4955214;29;19970;-61
2022/05/08 03:52:12;;;;;;;;;;;15.80;74.00;;;;;;4955660;29;20327;-59
2022/05/08 03:54:38;;;;;;;;;;;15.80;73.40;;;;;;4955342;29;19953;-59
2022/05/08 03:57:04;;;;;;;;;;;15.90;73.40;;;;;;4955371;29;19946;-61
2022/05/08 03:59:29;;;;;;;;;;;15.90;74.50;;;;;;4955817;28;20378;-61
2022/05/08 04:01:55;;;;;;;;;;;15.80;74.90;;;;;;4959288;29;20383;-61
2022/05/08 04:04:21;;;;;;;;;;;15.80;75.10;;;;;;4941753;29;19919;-66
2022/05/08 04:06:47;;;;;;;;;;;15.80;74.80;;;;;;4959223;29;19949;-59
2022/05/08 04:09:12;;;;;;;;;;;15.90;75.30;;;;;;4959079;29;19911;-64
2022/05/08 04:11:38;;;;;;;;;;;16.10;74.10;;;;;;4958944;29;19914;-67
2022/05/08 04:14:03;;;;;;;;;;;16.30;73.10;;;;;;4958962;29;20278;-68
2022/05/08 04:16:30;;;;;;;;;;;16.20;72.90;;;;;;4959055;29;20008;-67
2022/05/08 04:18:55;;;;;;;;;;;16.20;72.90;;;;;;4958842;29;19918;-68
2022/05/08 04:21:21;;;;;;;;;;;16.30;73.30;;;;;;4958329;29;20256;-65
2022/05/08 04:26:30;;;;;;;;;;;16.40;72.50;;;;;;4959112;29;19918;-61
2022/05/08 04:28:57;;;;;;;;;;;16.40;72.10;;;;;;4958939;29;19910;-61
2022/05/08 04:31:22;;;;;;;;;;;16.30;72.70;;;;;;4958784;29;19997;-68
2022/05/08 04:33:48;;;;;;;;;;;16.50;72.40;;;;;;4958580;29;19957;-64
2022/05/08 04:36:13;;;;;;;;;;;16.40;72.20;;;;;;4958842;29;19910;-65
2022/05/08 04:38:39;;;;;;;;;;;16.40;72.40;;;;;;4958608;29;19917;-64
2022/05/08 04:41:05;;;;;;;;;;;16.50;73.00;;;;;;4941056;29;19910;-62
2022/05/08 04:43:31;;;;;;;;;;;16.50;72.40;;;;;;4958231;29;19918;-61
2022/05/08 04:45:56;;;;;;;;;;;16.50;73.20;;;;;;4958421;29;19960;-58
2022/05/08 04:48:22;;;;;;;;;;;16.60;73.20;;;;;;4958390;29;19934;-57
2022/05/08 04:50:47;;;;;;;;;;;16.50;73.10;;;;;;4958100;29;20397;-56
2022/05/08 04:53:13;;;;;;;;;;;16.40;74.00;;;;;;4958321;29;19918;-57
2022/05/08 04:55:38;;;;;;;;;;;16.30;74.90;;;;;;4958369;29;19911;-57
2022/05/08 04:58:04;;;;;;;;;;;16.30;75.20;;;;;;4958282;29;19911;-57
2022/05/08 05:00:29;;;;;;;;;;;16.30;75.50;;;;;;4957843;29;19914;-59
2022/05/08 05:02:55;;;;;;;;;;;16.20;75.70;;;;;;4957793;29;20283;-58
2022/05/08 05:05:21;;;;;;;;;;;16.20;75.30;;;;;;4957970;29;19921;-57
2022/05/08 05:07:46;;;;;;;;;;;16.20;75.90;;;;;;4958017;29;19911;-57
2022/05/08 05:10:12;;;;;;;;;;;16.20;75.00;;;;;;4957701;28;19918;-57
2022/05/08 05:12:39;;;;;;;;;;;16.30;75.40;;;;;;4957724;29;19910;-57
2022/05/08 05:15:05;;;;;;;;;;;16.40;75.20;;;;;;4958105;29;20017;-55
2022/05/08 05:17:31;;;;;;;;;;;16.50;75.10;;;;;;4937672;29;22280;-56
2022/05/08 05:19:56;;;;;;;;;;;16.50;74.80;;;;;;4948631;29;19911;-56
2022/05/08 05:22:22;;;;;;;;;;;16.60;74.90;;;;;;4947250;29;19954;-56
2022/05/08 05:24:48;;;;;;;;;;;16.60;75.30;;;;;;4947186;29;19922;-55
2022/05/08 05:27:13;;;;;;;;;;;16.60;74.90;;;;;;4948806;29;19926;-56
2022/05/08 05:29:39;;;;;;;;;;;16.60;75.00;;;;;;4948387;29;20431;-55
2022/05/08 05:32:05;;;;;;;;;;;16.60;75.10;;;;;;4947407;29;19944;-55
2022/05/08 05:34:31;;;;;;;;;;;16.70;74.70;;;;;;4946653;29;20264;-55
2022/05/08 05:36:57;;;;;;;;;;;16.80;74.30;;;;;;4948058;29;19966;-54
2022/05/08 05:39:24;;;;;;;;;;;16.80;74.20;;;;;;4946824;29;20350;-56
2022/05/08 05:41:50;;;;;;;;;;;16.80;74.50;;;;;;4946956;29;19957;-53
2022/05/08 05:44:15;;;;;;;;;;;16.80;74.30;;;;;;4956473;29;20355;-55
2022/05/08 05:49:30;;;;;;;;;;;16.80;74.20;;;;;;4956913;29;20026;-56
2022/05/08 05:51:56;;;;;;;;;;;16.80;74.00;;;;;;4957202;29;19917;-55
2022/05/08 05:54:22;;;;;;;;;;;16.80;73.90;;;;;;4956773;29;19965;-56
2022/05/08 05:56:48;;;;;;;;;;;16.90;74.10;;;;;;4956715;29;19958;-56
2022/05/08 05:59:13;;;;;;;;;;;16.90;73.40;;;;;;4956619;29;20287;-56
2022/05/08 06:01:39;;;;;;;;;;;16.90;74.10;;;;;;4956961;29;19914;-56
2022/05/08 06:04:05;;;;;;;;;;;16.90;73.50;;;;;;4956784;29;20388;-56
2022/05/08 06:06:30;;;;;;;;;;;17.00;73.40;;;;;;4956738;29;19918;-56
2022/05/08 06:08:56;;;;;;;;;;;16.90;73.50;;;;;;4956686;29;19914;-56
2022/05/08 06:11:21;;;;;;;;;;;16.90;73.50;;;;;;4956638;29;19910;-56
2022/05/08 06:13:47;;;;;;;;;;;16.90;73.80;;;;;;4956553;29;19923;-56
2022/05/08 06:16:12;;;;;;;;;;;17.00;73.20;;;;;;4956733;29;20273;-56
2022/05/08 06:18:38;;;;;;;;;;;17.00;73.30;;;;;;4956834;29;19938;-56
2022/05/08 06:21:03;;;;;;;;;;;17.00;73.30;;;;;;4956545;29;19911;-57
2022/05/08 06:23:29;;;;;;;;;;;17.10;73.40;;;;;;4955948;28;20359;-54
2022/05/08 06:25:54;;;;;;;;;;;17.10;73.20;;;;;;4956607;29;19920;-56
2022/05/08 06:28:20;;;;;;;;;;;17.10;72.90;;;;;;4956360;29;20250;-55
2022/05/08 06:30:46;;;;;;;;;;;17.20;73.60;;;;;;4956164;29;19914;-56
2022/05/08 06:33:12;;;;;;;;;;;17.20;73.40;;;;;;4956121;29;19910;-57
2022/05/08 06:35:38;;;;;;;;;;;17.20;73.30;;;;;;4956626;29;19949;-56
2022/05/08 06:38:03;;;;;;;;;;;17.20;73.80;;;;;;4956173;29;19911;-58
2022/05/08 06:40:29;;;;;;;;;;;17.20;74.00;;;;;;4956331;29;19911;-55
2022/05/08 06:42:54;;;;;;;;;;;17.20;73.80;;;;;;4956112;29;20246;-56
2022/05/08 06:45:24;;;;;;;;;;;17.30;74.00;;;;;;4956106;29;19914;-56
2022/05/08 06:47:50;;;;;;;;;;;17.30;73.70;;;;;;4956010;29;20058;-56
2022/05/08 06:50:17;;;;;;;;;;;17.30;72.70;;;;;;4955727;29;19953;-56
2022/05/08 06:52:43;;;;;;;;;;;17.30;72.90;;;;;;4956151;29;19917;-56
2022/05/08 06:55:09;;;;;;;;;;;17.40;73.40;;;;;;4956028;29;19910;-57
2022/05/08 06:57:34;;;;;;;;;;;17.40;73.30;;;;;;4956161;29;19911;-56
2022/05/08 07:02:45;;;;;;;;;;;17.50;73.30;;;;;;4955875;29;19917;-56
2022/05/08 07:05:11;;;;;;;;;;;17.50;73.10;;;;;;4955751;29;19977;-56
2022/05/08 07:07:36;;;;;;;;;;;17.60;73.00;;;;;;4948027;29;19914;-55
2022/05/08 07:10:03;;;;;;;;;;;17.60;72.80;;;;;;4955608;29;19910;-58
2022/05/08 07:12:28;;;;;;;;;;;17.70;73.10;;;;;;4955701;29;19914;-55
2022/05/08 07:14:54;;;;;;;;;;;17.70;73.20;;;;;;4955746;29;19938;-55
2022/05/08 07:17:21;;;;;;;;;;;17.70;73.30;;;;;;4955807;29;19911;-55
2022/05/08 07:19:47;;;;;;;;;;;17.80;72.50;;;;;;4955753;29;19911;-56
2022/05/08 07:22:15;;;;;;;;;;;17.90;71.90;;;;;;4955834;29;20421;-55
2022/05/08 07:24:40;;;;;;;;;;;18.00;71.40;;;;;;4955622;29;19918;-58
2022/05/08 07:27:06;;;;;;;;;;;18.00;71.90;;;;;;4955880;29;20374;-56
2022/05/08 07:29:31;;;;;;;;;;;18.10;70.50;;;;;;4955427;29;19914;-56
2022/05/08 07:31:58;;;;;;;;;;;18.20;71.30;;;;;;4955561;29;19918;-55
2022/05/08 07:37:08;;;;;;;;;;;18.40;70.10;;;;;;4960180;29;20024;-56
2022/05/08 07:39:33;;;;;;;;;;;18.50;69.00;;;;;;4959487;29;20400;-56
2022/05/08 07:41:59;;;;;;;;;;;18.60;70.10;;;;;;4959496;29;20423;-57
2022/05/08 07:44:24;;;;;;;;;;;18.70;69.10;;;;;;4959464;29;19981;-59
2022/05/08 07:46:51;;;;;;;;;;;18.80;68.80;;;;;;4959529;29;19932;-56
2022/05/08 07:49:16;;;;;;;;;;;18.90;68.30;;;;;;4959603;28;19977;-57
2022/05/08 07:51:42;;;;;;;;;;;19.00;69.00;;;;;;4959405;29;20378;-62
2022/05/08 07:54:07;;;;;;;;;;;19.00;68.60;;;;;;4959484;29;19950;-59
2022/05/08 07:56:34;;;;;;;;;;;18.80;67.60;;;;;;4959374;29;19946;-60
2022/05/08 07:59:00;;;;;;;;;;;18.90;67.70;;;;;;4959274;29;20290;-56
2022/05/08 08:01:25;;;;;;;;;;;19.00;67.50;;;;;;4959152;29;19993;-56
2022/05/08 08:03:51;;;;;;;;;;;19.20;67.80;;;;;;4959166;29;19918;-62
2022/05/08 08:06:17;;;;;;;;;;;19.30;67.60;;;;;;4959160;29;19910;-56
2022/05/08 08:08:42;;;;;;;;;;;19.40;67.30;;;;;;4958828;29;19911;-59
2022/05/08 08:11:08;;;;;;;;;;;19.30;65.10;;;;;;4958862;29;19910;-56
2022/05/08 08:13:34;;;;;;;;;;;19.20;65.90;;;;;;4958851;29;19914;-58
2022/05/08 08:16:00;;;;;;;;;;;19.30;65.80;;;;;;4958770;29;19917;-59
2022/05/08 08:18:26;;;;;;;;;;;19.40;65.50;;;;;;4941384;29;19921;-57
2022/05/08 08:20:52;;;;;;;;;;;19.50;65.00;;;;;;4959101;29;19915;-60
2022/05/08 08:23:17;;;;;;;;;;;19.50;65.10;;;;;;4958730;29;19915;-58
2022/05/08 08:25:43;;;;;;;;;;;19.60;65.70;;;;;;4958869;29;19915;-55
2022/05/08 08:28:08;;;;;;;;;;;19.60;64.40;;;;;;4958442;29;20009;-57
2022/05/08 08:30:34;;;;;;;;;;;19.70;64.20;;;;;;4957550;29;19914;-57
2022/05/08 08:33:00;;;;;;;;;;;19.80;64.70;;;;;;4958615;29;20001;-57
2022/05/08 08:35:26;;;;;;;;;;;19.70;63.10;;;;;;4958420;29;20371;-57
2022/05/08 08:37:52;;;;;;;;;;;19.70;63.90;;;;;;4958595;29;19911;-56
2022/05/08 08:40:18;;;;;;;;;;;19.70;62.60;;;;;;4958258;29;20334;-58
2022/05/08 08:42:43;;;;;;;;;;;19.70;62.60;;;;;;4958562;29;20341;-58
2022/05/08 08:47:53;;;;;;;;;;;19.80;62.90;;;;;;4958870;29;19933;-61
2022/05/08 08:50:28;;;;;;;;;;;19.80;62.00;;;;;;4958313;28;20391;-60
2022/05/08 08:52:57;;;;;;;;;;;19.80;61.90;;;;;;4958417;29;19910;-57
2022/05/08 08:55:23;;;;;;;;;;;19.80;61.60;;;;;;4958514;29;19950;-56
2022/05/08 08:57:49;;;;;;;;;;;19.90;61.70;;;;;;4958417;29;19960;-58
2022/05/08 09:00:15;;;;;;;;;;;20.10;62.00;;;;;;4963732;29;19910;-56
2022/05/08 09:02:40;;;;;;;;;;;20.00;60.50;;;;;;4958386;29;19974;-56
2022/05/08 09:05:09;;;;;;;;;;;20.00;61.10;;;;;;4958172;29;20347;-59
2022/05/08 09:07:45;;;;;;;;;;;20.00;61.40;;;;;;4957822;29;19945;-58
2022/05/08 09:10:18;;;;;;;;;;;20.00;61.10;;;;;;4958053;29;19916;-59
2022/05/08 09:12:59;;;;;;;;;;;20.00;60.30;;;;;;4958004;29;20009;-56
2022/05/08 09:15:25;;;;;;;;;;;20.10;60.20;;;;;;4957853;29;19974;-58
2022/05/08 09:17:51;;;;;;;;;;;20.20;59.40;;;;;;4957623;29;19915;-58
2022/05/08 09:20:24;;;;;;;;;;;20.30;59.10;;;;;;4957730;29;19973;-58
2022/05/08 09:23:11;;;;;;;;;;;20.50;59.30;;;;;;4957870;29;19934;-62
2022/05/08 09:25:52;;;;;;;;;;;20.50;58.10;;;;;;4957686;29;19923;-60
2022/05/08 09:28:19;;;;;;;;;;;20.60;58.50;;;;;;4957462;29;19958;-66
2022/05/08 09:31:03;;;;;;;;;;;20.70;57.00;;;;;;4957553;29;19986;-57
2022/05/08 09:33:36;;;;;;;;;;;20.80;54.70;;;;;;4957499;29;20007;-56
2022/05/08 09:36:04;;;;;;;;;;;20.80;55.70;;;;;;4957700;29;19911;-60
2022/05/08 09:38:40;;;;;;;;;;;20.90;57.00;;;;;;4957159;29;20004;-55
2022/05/08 09:41:05;;;;;;;;;;;20.90;55.90;;;;;;4957442;29;19967;-58
2022/05/08 09:43:32;;;;;;;;;;;21.00;55.70;;;;;;4957373;29;19918;-57
2022/05/08 09:45:58;;;;;;;;;;;21.00;54.70;;;;;;4957339;29;19972;-57
2022/05/08 09:48:28;;;;;;;;;;;21.00;55.50;;;;;;4957084;29;20339;-55
2022/05/08 09:50:55;;;;;;;;;;;21.10;54.50;;;;;;4957139;29;19926;-55
2022/05/08 09:53:21;;;;;;;;;;;21.30;55.40;;;;;;4956289;29;19917;-57
2022/05/08 09:55:47;;;;;;;;;;;21.30;54.90;;;;;;4956639;29;19911;-56
2022/05/08 09:58:13;;;;;;;;;;;21.40;53.50;;;;;;4955560;28;19910;-55
2022/05/08 10:00:39;;;;;;;;;;;21.50;51.80;;;;;;4956201;28;19910;-55
2022/05/08 10:03:08;;;;;;;;;;;21.50;51.70;;;;;;4956154;29;19910;-55
2022/05/08 10:05:34;;;;;;;;;;;21.70;52.20;;;;;;4956224;29;20341;-55
2022/05/08 10:08:01;;;;;;;;;;;21.80;51.70;;;;;;4956218;29;20007;-58
2022/05/08 10:15:55;;;;;;;;;;;21.70;50.30;;;;;;4955698;28;19965;-56
2022/05/08 10:18:31;;;;;;;;;;;21.90;50.80;;;;;;4955811;29;20001;-55
2022/05/08 10:21:12;;;;;;;;;;;21.50;51.20;;;;;;4955897;28;19921;-55
2022/05/08 10:23:41;;;;;;;;;;;21.60;52.20;;;;;;4955658;29;19918;-56
2022/05/08 10:26:19;;;;;;;;;;;21.80;51.20;;;;;;4955495;29;19977;-56
2022/05/08 10:29:00;;;;;;;;;;;21.90;51.30;;;;;;4955457;28;20381;-56
2022/05/08 10:31:44;;;;;;;;;;;22.00;51.60;;;;;;4955528;29;20271;-56
2022/05/08 10:34:10;;;;;;;;;;;22.00;51.20;;;;;;4955603;29;20374;-57
2022/05/08 10:36:35;;;;;;;;;;;22.00;49.60;;;;;;4955745;29;19917;-56
2022/05/08 10:39:20;;;;;;;;;;;22.00;49.30;;;;;;4955498;28;20365;-56
2022/05/08 10:41:46;;;;;;;;;;;21.90;50.60;;;;;;4955356;29;19961;-55
2022/05/08 10:44:30;;;;;;;;;;;21.90;49.80;;;;;;4955664;29;19982;-56
2022/05/08 10:47:16;;;;;;;;;;;22.00;49.40;;;;;;4955547;29;19918;-56
2022/05/08 10:49:42;;;;;;;;;;;22.00;49.80;;;;;;4941688;29;20362;-56
2022/05/08 10:52:08;;;;;;;;;;;22.10;49.90;;;;;;4955623;29;19915;-56
2022/05/08 10:54:33;;;;;;;;;;;22.10;49.20;;;;;;4955627;29;20007;-55
2022/05/08 10:56:59;;;;;;;;;;;22.10;48.20;;;;;;4955678;29;19990;-56
2022/05/08 10:59:43;;;;;;;;;;;22.00;49.10;;;;;;4955905;29;19911;-54
2022/05/08 11:02:09;;;;;;;;;;;21.90;48.50;;;;;;4955878;29;20260;-55
2022/05/08 11:04:49;;;;;;;;;;;21.90;49.20;;;;;;4955782;29;19928;-56
2022/05/08 11:07:20;;;;;;;;;;;21.80;47.70;;;;;;4956087;29;19917;-55
2022/05/08 11:09:47;;;;;;;;;;;21.90;48.00;;;;;;4955520;28;20331;-57
2022/05/08 11:12:13;;;;;;;;;;;22.10;48.30;;;;;;4955709;29;19994;-56
2022/05/08 11:14:39;;;;;;;;;;;22.20;47.60;;;;;;4955742;29;19915;-57
2022/05/08 11:17:15;;;;;;;;;;;22.30;46.60;;;;;;4955911;29;19985;-56
2022/05/08 11:19:53;;;;;;;;;;;22.30;47.60;;;;;;4955775;29;20252;-56
2022/05/08 11:22:18;;;;;;;;;;;22.30;47.50;;;;;;4956031;29;20354;-56
2022/05/08 11:24:49;;;;;;;;;;;22.10;47.00;;;;;;4955748;29;19919;-56
2022/05/08 11:27:15;;;;;;;;;;;22.00;48.00;;;;;;4955700;29;19938;-56
2022/05/08 11:29:50;;;;;;;;;;;22.10;46.30;;;;;;4955717;29;20021;-55
2022/05/08 11:38:02;;;;;;;;;;;22.10;45.70;;;;;;4957211;29;20046;-57
2022/05/08 11:40:28;;;;;;;;;;;22.20;45.50;;;;;;4956344;29;19918;-56
2022/05/08 11:42:54;;;;;;;;;;;22.10;44.90;;;;;;4955067;29;19910;-56
2022/05/08 11:45:19;;;;;;;;;;;22.10;43.80;;;;;;4954685;29;19919;-56
2022/05/08 11:47:51;;;;;;;;;;;22.10;44.80;;;;;;4954973;29;19918;-55
2022/05/08 11:50:17;;;;;;;;;;;22.10;44.80;;;;;;4937269;29;20457;-57
2022/05/08 11:52:42;;;;;;;;;;;22.10;44.50;;;;;;4954641;29;19954;-57
2022/05/08 11:55:08;;;;;;;;;;;22.00;45.30;;;;;;4954612;29;19911;-55
2022/05/08 11:57:41;;;;;;;;;;;22.10;44.50;;;;;;4955037;29;19910;-59
2022/05/08 12:00:08;;;;;;;;;;;22.00;44.80;;;;;;4955186;29;19921;-55
2022/05/08 12:02:44;;;;;;;;;;;22.00;44.20;;;;;;4954856;29;20256;-57
2022/05/08 12:05:21;;;;;;;;;;;22.10;43.00;;;;;;4954660;29;20354;-56
2022/05/08 12:07:47;;;;;;;;;;;22.20;42.40;;;;;;4954885;28;19914;-56
2022/05/08 12:10:13;;;;;;;;;;;22.30;41.50;;;;;;4954925;29;19911;-56
2022/05/08 12:12:39;;;;;;;;;;;22.40;41.10;;;;;;4937445;29;19910;-55
2022/05/08 12:15:04;;;;;;;;;;;22.50;40.60;;;;;;4954883;29;19918;-58
2022/05/08 12:17:31;;;;;;;;;;;22.40;41.00;;;;;;4954989;29;19914;-55
2022/05/08 12:19:57;;;;;;;;;;;22.40;40.70;;;;;;4954845;28;19914;-55
2022/05/08 12:22:26;;;;;;;;;;;22.40;40.60;;;;;;4958274;29;19910;-56
2022/05/08 12:24:55;;;;;;;;;;;22.50;40.70;;;;;;4958577;29;19946;-59
2022/05/08 12:27:21;;;;;;;;;;;22.60;42.10;;;;;;4958948;29;20377;-56
2022/05/08 12:29:47;;;;;;;;;;;22.70;41.00;;;;;;4941367;29;19915;-56
2022/05/08 12:32:13;;;;;;;;;;;22.80;41.90;;;;;;4958785;29;19910;-56
2022/05/08 12:34:41;;;;;;;;;;;22.90;41.20;;;;;;4958482;29;19910;-56
2022/05/08 12:37:09;;;;;;;;;;;23.00;40.90;;;;;;4958282;29;19914;-56
2022/05/08 12:39:35;;;;;;;;;;;23.00;41.40;;;;;;4958427;29;20390;-56
2022/05/08 12:42:00;;;;;;;;;;;23.00;42.30;;;;;;4958414;29;19911;-59
2022/05/08 12:44:26;;;;;;;;;;;23.10;41.40;;;;;;4958268;29;19922;-60
2022/05/08 12:46:52;;;;;;;;;;;23.20;42.00;;;;;;4958607;29;20001;-61
2022/05/08 12:49:17;;;;;;;;;;;23.20;41.30;;;;;;4958136;29;20346;-62
2022/05/08 12:51:45;;;;;;;;;;;22.80;41.10;;;;;;4958167;29;19914;-57
2022/05/08 12:54:11;;;;;;;;;;;22.90;40.60;;;;;;4958204;29;19928;-57
2022/05/08 12:56:37;;;;;;;;;;;22.80;42.60;;;;;;4958080;29;19948;-56
2022/05/08 13:01:48;;;;;;;;;;;23.10;41.40;;;;;;4957955;29;19961;-56
2022/05/08 13:04:14;;;;;;;;;;;23.00;40.60;;;;;;4958114;29;19919;-56
2022/05/08 13:06:39;;;;;;;;;;;23.10;41.80;;;;;;4957866;29;20274;-56
2022/05/08 13:09:08;;;;;;;;;;;23.00;39.80;;;;;;4957873;29;19917;-56
2022/05/08 13:11:34;;;;;;;;;;;23.10;39.20;;;;;;4940614;29;19946;-55
2022/05/08 13:14:00;;;;;;;;;;;23.10;41.80;;;;;;4957770;29;19911;-55
2022/05/08 13:16:26;;;;;;;;;;;23.40;39.80;;;;;;4957827;29;19969;-55
2022/05/08 13:18:51;;;;;;;;;;;23.40;39.90;;;;;;4957888;29;19910;-55
2022/05/08 13:21:17;;;;;;;;;;;23.30;40.30;;;;;;4957867;29;19910;-58
2022/05/08 13:23:42;;;;;;;;;;;23.10;38.80;;;;;;4957593;29;20421;-55
2022/05/08 13:26:08;;;;;;;;;;;23.10;40.20;;;;;;4957403;29;19965;-55
2022/05/08 13:28:34;;;;;;;;;;;23.20;39.70;;;;;;4957569;29;19957;-56
2022/05/08 13:31:00;;;;;;;;;;;23.20;38.30;;;;;;4957590;29;19997;-57
2022/05/08 13:33:26;;;;;;;;;;;23.00;38.90;;;;;;4956187;28;19990;-56
2022/05/08 13:35:53;;;;;;;;;;;23.20;39.40;;;;;;4957454;29;20366;-56
2022/05/08 13:38:20;;;;;;;;;;;23.30;38.60;;;;;;4957574;29;19911;-56
2022/05/08 13:40:48;;;;;;;;;;;23.40;39.10;;;;;;4957173;29;19918;-57
2022/05/08 13:43:17;;;;;;;;;;;23.10;39.50;;;;;;4957152;29;19915;-57
2022/05/08 13:45:43;;;;;;;;;;;23.10;39.70;;;;;;4957178;29;19921;-56
2022/05/08 13:48:09;;;;;;;;;;;23.00;39.50;;;;;;4957034;29;19910;-56
2022/05/08 13:50:35;;;;;;;;;;;23.00;39.50;;;;;;4957064;29;20029;-56
2022/05/08 13:53:04;;;;;;;;;;;23.10;40.70;;;;;;4956946;29;19915;-56
2022/05/08 13:55:29;;;;;;;;;;;23.20;40.50;;;;;;4956900;28;19938;-54
2022/05/08 13:57:55;;;;;;;;;;;23.20;40.10;;;;;;4957284;29;19911;-56
2022/05/08 14:00:21;;;;;;;;;;;23.00;40.80;;;;;;4957112;29;20362;-56
2022/05/08 14:02:48;;;;;;;;;;;23.00;40.90;;;;;;4956867;29;19953;-56
2022/05/08 14:05:14;;;;;;;;;;;23.10;41.70;;;;;;4956918;29;19997;-56
2022/05/08 14:07:40;;;;;;;;;;;23.20;42.10;;;;;;4956681;29;19976;-55
2022/05/08 14:10:07;;;;;;;;;;;23.30;42.10;;;;;;4957027;29;20383;-56
2022/05/08 14:12:37;;;;;;;;;;;23.30;41.80;;;;;;4956859;29;20005;-57
2022/05/08 14:15:03;;;;;;;;;;;23.40;41.90;;;;;;4957299;29;19910;-55
2022/05/08 14:17:30;;;;;;;;;;;23.50;42.30;;;;;;4957134;29;20252;-56
2022/05/08 14:19:56;;;;;;;;;;;23.40;42.20;;;;;;4956941;29;19911;-56
2022/05/08 14:22:22;;;;;;;;;;;23.40;41.50;;;;;;4956361;29;19973;-57
2022/05/08 14:24:49;;;;;;;;;;;23.30;42.00;;;;;;4956354;29;19918;-56
2022/05/08 14:27:15;;;;;;;;;;;23.30;42.20;;;;;;4956647;29;19966;-57
2022/05/08 14:29:41;;;;;;;;;;;23.30;42.40;;;;;;4956267;29;19917;-57
2022/05/08 14:37:35;;;;;;;;;;;23.40;42.30;;;;;;4956287;29;20017;-56
2022/05/08 14:40:00;;;;;;;;;;;23.30;42.30;;;;;;4956116;29;20362;-55
2022/05/08 14:42:26;;;;;;;;;;;23.30;42.40;;;;;;4956124;29;20001;-56
2022/05/08 14:44:51;;;;;;;;;;;23.00;42.20;;;;;;4955811;28;19966;-56
2022/05/08 14:47:18;;;;;;;;;;;23.00;42.40;;;;;;4955927;29;19910;-56
2022/05/08 14:49:44;;;;;;;;;;;23.00;42.20;;;;;;4956091;29;19922;-56
2022/05/08 14:52:10;;;;;;;;;;;22.90;42.80;;;;;;4955930;29;19918;-56
2022/05/08 14:54:36;;;;;;;;;;;22.90;43.10;;;;;;4956048;29;19911;-58
2022/05/08 14:57:01;;;;;;;;;;;22.90;42.90;;;;;;4955925;29;19965;-58
2022/05/08 14:59:27;;;;;;;;;;;22.90;43.30;;;;;;4955977;29;20064;-55